MMMX

Licenciado Benito Juarez International Airport

Mexico City, Mexico
METAR MMMX 200145Z 36008KT 8SM SCT020 BKN080 17/11 A3030 NOSIG RMK 8/430 HZY
Observed Flight Rules
Oct-20 @ 01:45 UTC (26 minutes ago) Visual Flight Rules
Wind Visibility Clouds
360° at 8 knots 8 miles
  • Scattered at 2,000' AGL
  • Broken at 8,000' AGL
Temperatures Readings
Current 17°C / 63°F
Dewpoint 11°C / 52°F
Humidity 68%
Altimeter 30.3" Hg
Pressure 1026 hPa
Elevation 2238
METAR MMMX 200145Z 36008KT 8SM SCT020 BKN080 17/11 A3030 NOSIG RMK 8/430 HZY
Observed Flight Rules
Oct-20 @ 01:45 UTC
(26 minutes ago)
VFR
Wind Visibility
360° at 8 knots 8 miles
Clouds
  • Scattered at 2,000' AGL
  • Broken at 8,000' AGL
Temperature Dewpoint
17°C / 63°F 11°C / 52°F
Humidity Altimeter Pressure
68% 30.3" Hg 1026 hPa